Masons Island, Connecticut
Current Conditions -  °F | °C
As of 9:56 AM on Thursday 18 Dec 2014 (Local Time) from KGON Reporting Station
Overcast Overcast  
Wind Chill: 31°   Ceiling: 3500
Heat Index: 39°   Visibility: 8mi
Dew Point: 27°   Wind: 13mph
Humidity: 62%   Direction: 310°NW
Pressure: 29.88"   Gusts: 28mph
Location:  41.3658°N, 71.9769°W
Report Text: KGON 181456Z 31011G24KT 8SM OVC035 04/M03 A2988 RMK AO2 SLP117 T00391028 51014
Loading
Personal Weather Stations






























Interactive Weather Map New forecast layout! Learn more

10-Day Weather Forecast

Advertisements
Track Severe Weather on mobile